Time;durP1;ratioP1;P1;durP2;ratioP2;P2;SDS_P1;SDS_P2;PMS_P1;PMS_P2;Temp;Humidity;BMP_temperature;BMP_pressure;BME280_temperature;BME280_humidity;BME280_pressure;Samples;Min_cycle;Max_cycle;Signal;HPM_P1;HPM_P2
2021/07/03 00:00:23;;;;;;;11.73;9.70;;;15.50;99.90;;;;;;4862696;29;20568;-72
2021/07/03 00:02:50;;;;;;;14.00;11.23;;;15.50;99.90;;;;;;4861571;29;20990;-72
2021/07/03 00:05:17;;;;;;;12.50;10.60;;;15.40;99.90;;;;;;4862490;29;20466;-72
2021/07/03 00:07:43;;;;;;;13.37;10.87;;;15.40;99.90;;;;;;4861387;29;20480;-72
2021/07/03 00:10:11;;;;;;;12.90;10.57;;;15.40;99.90;;;;;;4830692;29;20455;-72
2021/07/03 00:12:38;;;;;;;12.50;10.50;;;15.30;99.90;;;;;;4860083;29;20487;-72
2021/07/03 00:15:10;;;;;;;12.07;10.87;;;15.40;99.90;;;;;;4862336;29;20424;-72
2021/07/03 00:17:36;;;;;;;11.93;9.83;;;15.50;99.90;;;;;;4861739;29;20468;-72
2021/07/03 00:20:07;;;;;;;12.70;10.00;;;15.40;99.90;;;;;;4862438;29;20428;-72
2021/07/03 00:22:34;;;;;;;12.07;10.20;;;15.30;99.90;;;;;;4833347;29;20490;-72
2021/07/03 00:25:04;;;;;;;15.13;11.00;;;15.20;99.90;;;;;;4862295;29;20472;-72
2021/07/03 00:27:31;;;;;;;13.43;10.60;;;15.10;99.90;;;;;;4861633;29;20471;-72
2021/07/03 00:29:58;;;;;;;11.30;10.13;;;15.20;99.90;;;;;;4861211;29;20440;-72
2021/07/03 00:32:25;;;;;;;13.37;11.47;;;15.20;99.90;;;;;;4861596;29;20476;-72
2021/07/03 00:34:52;;;;;;;15.87;11.43;;;15.20;99.90;;;;;;4862172;29;20439;-72
2021/07/03 00:37:19;;;;;;;12.57;10.87;;;15.30;99.90;;;;;;4861472;29;20987;-72
2021/07/03 00:39:46;;;;;;;15.23;10.20;;;15.20;99.90;;;;;;4861824;29;20443;-72
2021/07/03 00:42:13;;;;;;;11.57;9.90;;;15.20;99.90;;;;;;4860559;29;20547;-72
2021/07/03 00:44:42;;;;;;;12.03;9.40;;;15.00;99.90;;;;;;4845395;29;20480;-72
2021/07/03 00:47:10;;;;;;;14.50;10.97;;;15.00;99.90;;;;;;4861371;29;20515;-72
2021/07/03 00:49:41;;;;;;;11.70;10.47;;;14.90;99.90;;;;;;4841581;29;20543;-72
2021/07/03 00:52:09;;;;;;;10.80;9.77;;;15.00;99.90;;;;;;4841661;29;20477;-72
2021/07/03 00:54:40;;;;;;;11.47;10.03;;;15.10;99.90;;;;;;4841818;29;20809;-72
2021/07/03 00:57:09;;;;;;;16.23;10.50;;;15.10;99.90;;;;;;4841348;29;20551;-72
2021/07/03 00:59:43;;;;;;;12.23;9.47;;;15.10;99.90;;;;;;4842112;29;20433;-72
2021/07/03 01:02:17;;;;;;;11.53;10.33;;;15.10;99.90;;;;;;4859283;29;20997;-72
2021/07/03 01:04:46;;;;;;;12.00;10.80;;;15.10;99.90;;;;;;4845102;29;20482;-72
2021/07/03 01:07:17;;;;;;;11.67;10.47;;;15.00;99.90;;;;;;4860973;29;20834;-72
2021/07/03 01:09:45;;;;;;;12.37;9.43;;;15.00;99.90;;;;;;4859915;29;20539;-72
2021/07/03 01:12:14;;;;;;;10.10;9.07;;;15.00;99.90;;;;;;4861163;29;20520;-72
2021/07/03 01:14:48;;;;;;;10.27;9.20;;;15.00;99.90;;;;;;4844729;29;20426;-72
2021/07/03 01:17:18;;;;;;;11.53;9.53;;;14.80;99.90;;;;;;4843441;29;20500;-72
2021/07/03 01:19:46;;;;;;;12.20;9.40;;;14.70;99.90;;;;;;4850288;29;20436;-72
2021/07/03 01:22:15;;;;;;;10.50;9.43;;;14.60;99.90;;;;;;4825996;29;20468;-72
2021/07/03 01:24:43;;;;;;;12.20;9.70;;;14.50;99.90;;;;;;4827000;29;20471;-72
2021/07/03 01:27:14;;;;;;;10.33;9.23;;;14.60;99.90;;;;;;4841935;29;20487;-72
2021/07/03 01:29:43;;;;;;;16.40;9.80;;;14.50;99.90;;;;;;4842711;29;20439;-72
2021/07/03 01:32:11;;;;;;;12.97;9.33;;;14.50;99.90;;;;;;4843755;29;20479;-72
2021/07/03 01:34:39;;;;;;;11.67;8.70;;;14.40;99.90;;;;;;4861224;29;20819;-72
2021/07/03 01:37:12;;;;;;;12.80;9.70;;;14.40;99.90;;;;;;4859004;29;20488;-72
2021/07/03 01:39:44;;;;;;;11.77;9.70;;;14.40;99.90;;;;;;4860605;29;20449;-72
2021/07/03 01:42:13;;;;;;;11.00;9.43;;;14.60;99.90;;;;;;4860274;29;20488;-72
2021/07/03 01:44:40;;;;;;;15.20;10.33;;;14.50;99.90;;;;;;4844155;29;20439;-72
2021/07/03 01:47:07;;;;;;;9.70;8.30;;;14.40;99.90;;;;;;4859471;29;20478;-72
2021/07/03 01:49:40;;;;;;;12.30;10.10;;;14.30;99.90;;;;;;4859688;29;20435;-72
2021/07/03 01:52:08;;;;;;;12.53;8.70;;;14.30;99.90;;;;;;4860335;29;20817;-72
2021/07/03 01:54:37;;;;;;;10.27;9.20;;;14.40;99.90;;;;;;4859444;29;20527;-72
2021/07/03 01:57:05;;;;;;;10.40;9.37;;;14.40;99.90;;;;;;4859764;29;20505;-72
2021/07/03 01:59:53;;;;;;;13.03;10.30;;;14.40;99.90;;;;;;4860979;29;20509;-72
2021/07/03 02:02:21;;;;;;;14.00;10.33;;;14.40;99.90;;;;;;4858203;29;20476;-72
2021/07/03 02:04:50;;;;;;;15.23;9.77;;;14.30;99.90;;;;;;4859544;29;20518;-72
2021/07/03 02:07:17;;;;;;;11.33;10.10;;;14.30;99.90;;;;;;4858731;29;20470;-72
2021/07/03 02:09:45;;;;;;;10.43;9.20;;;14.30;99.90;;;;;;4840744;29;20463;-72
2021/07/03 02:12:12;;;;;;;16.13;10.60;;;14.30;99.90;;;;;;4840494;29;20475;-72
2021/07/03 02:15:10;;;;;;;11.90;10.53;;;14.30;99.90;;;;;;5068975;28;21210;-71
2021/07/03 02:17:39;;;;;;;19.50;12.13;;;14.20;99.90;;;;;;5008282;28;21035;-71
2021/07/03 02:20:14;;;;;;;12.73;10.57;;;14.20;99.90;;;;;;4990023;28;20420;-72
2021/07/03 02:22:50;;;;;;;16.30;11.00;;;14.20;99.90;;;;;;4988319;28;20484;-70
2021/07/03 02:25:21;;;;;;;11.37;9.60;;;14.30;99.90;;;;;;4988721;28;20447;-71
2021/07/03 02:27:51;;;;;;;13.03;10.50;;;14.30;99.90;;;;;;5003782;28;20764;-70
2021/07/03 02:30:21;;;;;;;15.27;12.03;;;14.40;99.90;;;;;;5008058;28;20432;-71
2021/07/03 02:32:51;;;;;;;12.73;10.43;;;14.40;99.90;;;;;;5026506;28;20481;-71
2021/07/03 02:35:19;;;;;;;12.30;11.00;;;14.40;99.90;;;;;;5011523;28;20437;-70
2021/07/03 02:37:47;;;;;;;15.40;12.10;;;14.50;99.90;;;;;;5025511;28;20482;-70
2021/07/03 02:40:17;;;;;;;12.23;10.93;;;14.40;99.90;;;;;;5008098;28;20447;-73
2021/07/03 02:42:45;;;;;;;13.40;12.00;;;14.40;99.90;;;;;;5008235;28;20470;-71
2021/07/03 02:45:14;;;;;;;13.20;11.67;;;14.40;99.90;;;;;;5024201;28;20435;-70
2021/07/03 02:47:42;;;;;;;16.67;13.50;;;14.40;99.90;;;;;;5013931;28;20479;-73
2021/07/03 02:50:13;;;;;;;12.17;10.97;;;14.50;99.90;;;;;;5028592;28;20490;-73
2021/07/03 02:52:42;;;;;;;15.37;10.50;;;14.50;99.90;;;;;;5025622;28;20530;-70
2021/07/03 02:55:11;;;;;;;14.13;10.93;;;14.50;99.90;;;;;;5007346;28;20469;-70
2021/07/03 02:57:39;;;;;;;13.27;11.90;;;14.50;99.90;;;;;;5008110;28;20471;-73
2021/07/03 03:00:14;;;;;;;16.60;12.20;;;14.40;99.90;;;;;;5024790;28;20429;-73
2021/07/03 03:02:44;;;;;;;18.17;11.07;;;14.50;99.90;;;;;;5022943;28;20481;-70
2021/07/03 03:05:13;;;;;;;13.20;11.80;;;14.50;99.90;;;;;;5020258;28;20436;-73
2021/07/03 03:07:42;;;;;;;15.27;13.00;;;14.50;99.90;;;;;;5038617;28;20460;-73
2021/07/03 03:10:12;;;;;;;16.00;12.33;;;14.50;99.90;;;;;;5043597;28;20492;-73
2021/07/03 03:12:39;;;;;;;14.10;12.03;;;14.50;99.90;;;;;;5043045;28;20477;-70
2021/07/03 03:15:11;;;;;;;13.60;11.50;;;14.50;99.90;;;;;;5027114;28;20499;-72
2021/07/03 03:17:39;;;;;;;12.27;11.03;;;14.40;99.90;;;;;;5041998;28;20552;-72
2021/07/03 03:20:09;;;;;;;15.03;11.90;;;14.40;99.90;;;;;;5028119;28;20517;-72
2021/07/03 03:22:37;;;;;;;12.73;10.37;;;14.40;99.90;;;;;;5026871;28;21054;-72
2021/07/03 03:25:05;;;;;;;12.23;10.40;;;14.30;99.90;;;;;;5031611;28;20656;-72
2021/07/03 03:27:35;;;;;;;13.97;10.80;;;14.30;99.90;;;;;;5033849;28;20464;-72
2021/07/03 03:30:05;;;;;;;13.83;11.00;;;14.40;99.90;;;;;;5032600;28;20469;-72
2021/07/03 03:32:35;;;;;;;11.17;9.97;;;14.40;99.90;;;;;;5032750;28;20473;-72
2021/07/03 03:35:04;;;;;;;16.53;11.13;;;14.30;99.90;;;;;;5033213;28;20829;-72
2021/07/03 03:37:31;;;;;;;15.43;11.13;;;14.30;99.90;;;;;;5032363;28;20496;-72
2021/07/03 03:39:59;;;;;;;16.30;11.20;;;14.30;99.90;;;;;;5034422;28;20465;-72
2021/07/03 03:42:26;;;;;;;19.70;12.00;;;14.30;99.90;;;;;;5033933;28;20466;-72
2021/07/03 03:44:56;;;;;;;11.40;9.67;;;14.30;99.90;;;;;;5033334;28;20437;-72
2021/07/03 03:47:23;;;;;;;14.60;10.77;;;14.30;99.90;;;;;;5028171;28;20494;-72
2021/07/03 03:49:51;;;;;;;12.93;11.57;;;14.40;99.90;;;;;;5014571;28;20509;-72
2021/07/03 03:52:18;;;;;;;13.67;12.27;;;14.50;99.90;;;;;;5013823;28;20520;-72
2021/07/03 03:54:48;;;;;;;14.30;11.60;;;14.60;99.90;;;;;;5029230;28;20475;-72
2021/07/03 03:57:24;;;;;;;12.47;11.23;;;14.60;99.90;;;;;;5012121;28;20476;-72
2021/07/03 03:59:56;;;;;;;16.17;11.30;;;14.80;99.90;;;;;;5014139;28;20480;-72
2021/07/03 04:02:29;;;;;;;17.37;12.43;;;14.90;99.90;;;;;;5012510;28;20531;-72
2021/07/03 04:04:57;;;;;;;13.77;10.20;;;14.90;99.90;;;;;;5012868;28;20455;-72
2021/07/03 04:07:24;;;;;;;14.90;11.30;;;15.10;99.90;;;;;;5011807;28;20498;-72
2021/07/03 04:09:53;;;;;;;15.10;12.17;;;15.10;99.90;;;;;;5029304;28;20442;-72
2021/07/03 04:12:21;;;;;;;12.70;10.67;;;15.20;99.90;;;;;;5012199;28;20877;-72
2021/07/03 04:14:48;;;;;;;11.47;9.87;;;15.20;99.90;;;;;;5013730;28;20472;-72
2021/07/03 04:17:16;;;;;;;14.07;10.27;;;15.30;99.90;;;;;;5012261;28;20551;-72
2021/07/03 04:19:43;;;;;;;14.77;12.30;;;15.30;99.90;;;;;;5012573;28;20786;-72
2021/07/03 04:22:15;;;;;;;15.37;10.63;;;15.30;99.90;;;;;;5028399;28;20483;-72
2021/07/03 04:24:41;;;;;;;13.77;11.40;;;15.30;99.90;;;;;;5013901;28;20449;-72
2021/07/03 04:27:08;;;;;;;12.30;10.40;;;15.30;99.90;;;;;;5013174;28;20468;-72
2021/07/03 04:29:35;;;;;;;12.77;11.03;;;15.30;99.90;;;;;;5013533;28;20435;-72
2021/07/03 04:32:03;;;;;;;12.43;9.93;;;15.30;99.90;;;;;;5013337;28;20829;-72
2021/07/03 04:34:29;;;;;;;15.80;9.90;;;15.30;99.90;;;;;;5028648;28;20481;-72
2021/07/03 04:36:57;;;;;;;13.63;11.43;;;15.30;99.90;;;;;;5027208;28;20459;-72
2021/07/03 04:39:24;;;;;;;11.23;10.13;;;15.40;99.90;;;;;;5012134;28;20539;-72
2021/07/03 04:41:54;;;;;;;12.30;10.93;;;15.40;99.90;;;;;;5028127;28;20471;-72
2021/07/03 04:44:21;;;;;;;12.37;9.93;;;15.40;99.90;;;;;;5013322;28;20487;-72
2021/07/03 04:46:48;;;;;;;12.07;9.67;;;15.40;99.90;;;;;;5012691;28;20993;-72
2021/07/03 04:49:16;;;;;;;13.57;10.33;;;15.50;99.90;;;;;;5013096;28;20428;-72
2021/07/03 04:51:44;;;;;;;15.23;10.30;;;15.40;99.90;;;;;;5011690;28;20861;-72
2021/07/03 04:54:11;;;;;;;13.30;10.57;;;15.50;99.90;;;;;;5013302;28;20472;-72
2021/07/03 04:56:37;;;;;;;11.73;10.53;;;15.50;99.90;;;;;;5012867;28;20468;-72
2021/07/03 04:59:07;;;;;;;12.00;9.67;;;15.50;99.90;;;;;;5012945;28;20421;-72
2021/07/03 05:01:34;;;;;;;11.43;9.97;;;15.50;99.90;;;;;;5014711;28;20475;-72
2021/07/03 05:04:01;;;;;;;12.83;10.37;;;15.50;99.90;;;;;;5032902;28;20515;-72
2021/07/03 05:06:31;;;;;;;12.17;10.87;;;15.60;99.90;;;;;;5032314;28;20546;-72
2021/07/03 05:08:58;;;;;;;11.50;10.30;;;15.60;99.90;;;;;;5019760;28;20451;-72
2021/07/03 05:11:25;;;;;;;13.73;10.30;;;15.70;99.90;;;;;;5012640;28;20994;-73
2021/07/03 05:13:52;;;;;;;11.73;10.10;;;15.80;99.90;;;;;;5012457;28;20473;-72
2021/07/03 05:16:22;;;;;;;14.43;10.30;;;15.80;99.90;;;;;;5012659;28;20817;-72
2021/07/03 05:18:49;;;;;;;11.83;10.07;;;15.90;99.90;;;;;;5012624;28;20417;-72
2021/07/03 05:21:16;;;;;;;12.87;9.83;;;15.90;99.90;;;;;;5012265;28;20449;-72
2021/07/03 05:23:43;;;;;;;17.67;9.97;;;16.00;99.90;;;;;;5012498;28;20469;-72
2021/07/03 05:26:13;;;;;;;12.53;10.40;;;16.00;99.90;;;;;;5012529;28;20831;-72
2021/07/03 05:28:40;;;;;;;17.03;10.90;;;16.00;99.90;;;;;;5027906;28;20780;-72
2021/07/03 05:31:07;;;;;;;14.70;10.70;;;16.10;99.90;;;;;;5006114;28;20453;-72
2021/07/03 05:33:34;;;;;;;16.77;9.97;;;16.20;99.90;;;;;;5012422;28;20445;-72
2021/07/03 05:36:02;;;;;;;16.60;11.03;;;16.20;99.90;;;;;;5021044;28;20525;-72
2021/07/03 05:38:30;;;;;;;12.80;10.10;;;16.30;99.90;;;;;;5018887;28;20536;-72
2021/07/03 05:41:00;;;;;;;10.27;9.20;;;16.40;99.90;;;;;;5011855;28;20417;-72
2021/07/03 05:43:27;;;;;;;16.00;8.70;;;16.40;99.90;;;;;;5012623;28;20528;-72
2021/07/03 05:45:54;;;;;;;14.07;9.10;;;16.50;99.90;;;;;;5012432;28;20425;-72
2021/07/03 05:48:21;;;;;;;11.57;10.43;;;16.60;99.90;;;;;;5010882;28;20464;-72
2021/07/03 05:50:48;;;;;;;11.90;9.57;;;16.60;99.90;;;;;;5012213;28;20989;-72
2021/07/03 05:53:15;;;;;;;10.40;8.80;;;16.60;99.90;;;;;;5011832;28;20477;-72
2021/07/03 05:55:42;;;;;;;13.23;9.30;;;16.70;99.90;;;;;;5027488;28;20831;-72
2021/07/03 05:58:08;;;;;;;12.67;10.00;;;16.80;99.90;;;;;;5011526;28;20476;-72
2021/07/03 06:00:35;;;;;;;12.70;9.70;;;16.90;99.90;;;;;;5016968;28;20426;-71
2021/07/03 06:03:02;;;;;;;14.40;10.50;;;17.10;99.90;;;;;;5017108;28;21010;-72
2021/07/03 06:05:29;;;;;;;12.60;10.10;;;17.10;99.90;;;;;;5013395;28;20540;-71
2021/07/03 06:07:56;;;;;;;12.57;9.07;;;17.30;99.90;;;;;;5010646;28;20477;-72
2021/07/03 06:10:24;;;;;;;12.47;9.70;;;17.50;99.90;;;;;;5023636;28;20425;-72
2021/07/03 06:12:50;;;;;;;13.50;8.63;;;17.70;99.90;;;;;;5030825;28;20465;-72
2021/07/03 06:15:17;;;;;;;10.73;8.10;;;18.30;99.90;;;;;;5030698;28;20470;-72
2021/07/03 06:17:44;;;;;;;9.70;8.13;;;18.70;99.90;;;;;;5026803;28;20480;-69
2021/07/03 06:20:12;;;;;;;12.93;9.10;;;19.10;99.90;;;;;;5025042;28;20539;-72
2021/07/03 06:22:39;;;;;;;10.97;8.00;;;19.40;99.90;;;;;;5028866;28;20491;-71
2021/07/03 06:25:09;;;;;;;10.57;8.30;;;19.50;99.90;;;;;;5011961;28;20489;-72
2021/07/03 06:27:37;;;;;;;12.37;8.83;;;19.70;99.90;;;;;;5026256;28;20464;-71
2021/07/03 06:30:13;;;;;;;11.43;8.57;;;19.70;99.90;;;;;;5026863;28;20518;-71
2021/07/03 06:32:40;;;;;;;10.40;8.47;;;19.80;99.90;;;;;;5009827;28;20507;-71
2021/07/03 06:35:09;;;;;;;11.47;7.73;;;20.00;99.90;;;;;;5011739;28;20479;-72
2021/07/03 06:37:36;;;;;;;9.17;8.20;;;19.90;99.90;;;;;;5011215;28;20469;-71
2021/07/03 06:40:04;;;;;;;10.00;8.30;;;20.00;99.90;;;;;;5011707;28;20551;-72
2021/07/03 06:42:31;;;;;;;9.20;7.10;;;20.10;99.90;;;;;;5029170;28;20771;-71
2021/07/03 06:44:59;;;;;;;11.10;7.60;;;20.00;99.90;;;;;;5030062;28;20433;-71
2021/07/03 06:47:26;;;;;;;12.50;9.17;;;20.10;99.90;;;;;;5025878;28;20453;-71
2021/07/03 06:49:53;;;;;;;9.20;7.60;;;20.10;99.90;;;;;;5011645;28;20425;-71
2021/07/03 06:52:20;;;;;;;10.73;8.50;;;20.20;99.90;;;;;;5011162;28;20466;-71
2021/07/03 06:54:47;;;;;;;8.40;7.50;;;20.30;99.90;;;;;;5010229;28;20468;-72
2021/07/03 06:57:17;;;;;;;10.70;9.23;;;20.30;99.90;;;;;;5010763;28;20543;-71
2021/07/03 06:59:44;;;;;;;10.80;9.20;;;20.30;99.90;;;;;;5013160;28;20727;-71
2021/07/03 07:02:11;;;;;;;10.33;9.33;;;20.30;99.90;;;;;;5014837;28;20574;-72
2021/07/03 07:04:38;;;;;;;10.63;9.40;;;20.30;99.90;;;;;;5008122;28;20433;-71
2021/07/03 07:07:05;;;;;;;10.20;8.63;;;20.40;99.90;;;;;;5014707;28;21021;-71
2021/07/03 07:09:32;;;;;;;10.40;8.80;;;20.50;99.90;;;;;;5015345;28;20500;-71
2021/07/03 07:12:01;;;;;;;9.20;7.77;;;20.60;99.90;;;;;;5026987;28;20905;-72
2021/07/03 07:14:32;;;;;;;9.87;8.70;;;20.70;99.90;;;;;;5035146;28;20543;-71
2021/07/03 07:17:01;;;;;;;10.00;8.80;;;20.90;99.90;;;;;;5019794;28;20464;-71
2021/07/03 07:19:28;;;;;;;11.43;8.97;;;21.00;99.90;;;;;;5030637;28;20423;-71
2021/07/03 07:21:55;;;;;;;11.73;7.73;;;21.10;99.90;;;;;;5029736;28;20464;-71
2021/07/03 07:24:22;;;;;;;9.50;8.50;;;21.00;99.90;;;;;;5014911;28;20802;-72
2021/07/03 07:26:50;;;;;;;9.00;8.00;;;21.10;99.90;;;;;;5014355;28;20461;-72
2021/07/03 07:29:16;;;;;;;9.67;8.20;;;21.10;99.90;;;;;;5023761;28;20438;-72
2021/07/03 07:31:49;;;;;;;8.37;7.57;;;21.10;99.90;;;;;;5033845;28;20834;-72
2021/07/03 07:34:16;;;;;;;9.10;8.20;;;21.10;99.90;;;;;;5029550;28;20476;-72
2021/07/03 07:36:43;;;;;;;15.03;8.20;;;21.30;99.90;;;;;;5013984;28;20986;-71
2021/07/03 07:39:10;;;;;;;11.00;8.20;;;21.40;99.90;;;;;;5015249;28;20437;-71
2021/07/03 07:41:37;;;;;;;10.80;8.50;;;21.50;99.90;;;;;;5012705;28;20471;-71
2021/07/03 07:44:04;;;;;;;11.73;8.20;;;21.50;99.90;;;;;;5014623;28;20947;-72
2021/07/03 07:46:31;;;;;;;11.77;8.33;;;21.70;99.90;;;;;;5014176;28;20453;-71
2021/07/03 07:49:00;;;;;;;11.00;8.20;;;21.70;99.90;;;;;;5017050;28;20433;-71
2021/07/03 07:51:27;;;;;;;9.50;7.53;;;21.80;99.90;;;;;;5022782;28;20467;-72
2021/07/03 07:53:54;;;;;;;10.50;7.53;;;22.00;99.90;;;;;;5014752;28;20497;-71
2021/07/03 07:56:21;;;;;;;8.23;7.43;;;22.20;99.90;;;;;;5026878;28;21254;-71
2021/07/03 07:58:48;;;;;;;9.70;7.53;;;22.30;99.90;;;;;;5028898;28;20438;-71
2021/07/03 08:01:15;;;;;;;10.37;8.10;;;22.40;99.90;;;;;;5032183;28;20422;-71
2021/07/03 08:03:44;;;;;;;10.60;8.07;;;22.60;99.90;;;;;;5029983;28;20462;-72
2021/07/03 08:06:11;;;;;;;9.20;8.33;;;22.60;99.90;;;;;;5013629;28;20419;-71
2021/07/03 08:08:38;;;;;;;8.73;7.93;;;22.70;99.90;;;;;;5013596;28;20444;-72
2021/07/03 08:11:05;;;;;;;10.33;7.87;;;22.70;99.90;;;;;;5012367;28;20468;-72
2021/07/03 08:13:32;;;;;;;9.03;8.13;;;22.80;99.90;;;;;;5015699;28;20487;-71
2021/07/03 08:15:59;;;;;;;8.73;7.83;;;22.90;99.90;;;;;;5025747;28;21000;-72
2021/07/03 08:18:27;;;;;;;8.40;7.10;;;23.00;99.90;;;;;;5014961;28;20525;-71
2021/07/03 08:20:54;;;;;;;10.73;8.30;;;23.10;99.90;;;;;;5028067;28;20463;-72
2021/07/03 08:23:22;;;;;;;8.30;7.50;;;23.10;99.90;;;;;;5020093;28;20877;-69
2021/07/03 08:25:49;;;;;;;9.90;7.57;;;23.20;99.90;;;;;;5048401;28;20426;-70
2021/07/03 08:28:16;;;;;;;8.47;7.57;;;23.40;99.90;;;;;;5019937;28;20914;-70
2021/07/03 08:30:44;;;;;;;7.87;7.10;;;23.40;99.90;;;;;;5029527;28;20435;-71
2021/07/03 08:33:11;;;;;;;7.93;7.13;;;23.40;99.90;;;;;;5028565;28;20509;-70
2021/07/03 08:35:38;;;;;;;7.10;6.40;;;23.60;99.90;;;;;;5015261;28;20455;-72
2021/07/03 08:38:04;;;;;;;7.67;6.90;;;23.70;99.90;;;;;;5016274;28;20994;-70
2021/07/03 08:40:31;;;;;;;13.00;7.00;;;23.90;99.90;;;;;;5022454;28;20802;-72
2021/07/03 08:42:58;;;;;;;9.23;8.30;;;23.90;99.90;;;;;;5031290;28;20989;-72
2021/07/03 08:45:25;;;;;;;8.50;7.70;;;24.00;99.90;;;;;;5027528;28;20443;-72
2021/07/03 08:47:52;;;;;;;8.93;7.00;;;24.00;99.90;;;;;;5012199;28;20469;-71
2021/07/03 08:50:19;;;;;;;7.60;6.80;;;24.00;99.90;;;;;;5016316;28;20522;-73
2021/07/03 08:52:47;;;;;;;8.70;6.33;;;24.10;99.90;;;;;;5015478;28;20561;-72
2021/07/03 08:55:20;;;;;;;6.90;6.30;;;24.20;99.90;;;;;;5018570;28;20478;-73
2021/07/03 08:58:04;;;;;;;8.13;7.23;;;24.20;99.90;;;;;;5027497;28;20981;-73
2021/07/03 09:00:35;;;;;;;8.23;6.47;;;24.20;99.90;;;;;;5039351;28;20436;-73
2021/07/03 09:03:17;;;;;;;8.87;7.10;;;24.30;99.90;;;;;;5029312;28;20484;-72
2021/07/03 09:05:54;;;;;;;8.10;7.20;;;24.30;99.90;;;;;;5027812;28;20532;-72
2021/07/03 09:08:26;;;;;;;6.53;5.93;;;24.30;99.90;;;;;;5019199;28;20476;-70
2021/07/03 09:11:00;;;;;;;7.10;5.40;;;24.30;99.90;;;;;;5017375;28;20523;-72
2021/07/03 09:13:29;;;;;;;6.90;5.90;;;24.40;99.90;;;;;;5031645;28;20474;-71
2021/07/03 09:15:56;;;;;;;7.07;6.47;;;24.50;99.90;;;;;;5025666;28;20475;-73
2021/07/03 09:18:27;;;;;;;7.30;6.70;;;24.60;99.90;;;;;;5012505;28;20782;-71
2021/07/03 09:21:01;;;;;;;6.80;6.10;;;24.60;99.90;;;;;;5024226;28;20428;-71
2021/07/03 09:23:35;;;;;;;7.73;6.93;;;24.70;99.90;;;;;;5012525;28;20457;-71
2021/07/03 09:26:07;;;;;;;7.03;6.20;;;24.80;98.60;;;;;;5028020;28;20436;-70
2021/07/03 09:28:40;;;;;;;5.90;5.40;;;24.80;97.30;;;;;;5032102;28;20431;-70
2021/07/03 09:31:09;;;;;;;6.70;6.10;;;24.80;99.50;;;;;;5028089;28;21081;-70
2021/07/03 09:33:53;;;;;;;7.33;6.63;;;24.90;98.90;;;;;;5021972;28;20555;-70
2021/07/03 09:36:27;;;;;;;7.87;6.60;;;24.90;97.70;;;;;;5010683;28;20468;-73
2021/07/03 09:38:56;;;;;;;7.63;6.93;;;25.00;96.80;;;;;;5013322;28;20432;-71
2021/07/03 09:41:37;;;;;;;7.13;6.43;;;25.10;95.40;;;;;;5011685;28;20560;-71
2021/07/03 09:44:09;;;;;;;6.30;5.70;;;25.20;95.90;;;;;;5011361;28;20923;-70
2021/07/03 09:46:41;;;;;;;8.40;6.20;;;25.30;92.30;;;;;;5022933;28;20538;-71
2021/07/03 09:49:18;;;;;;;6.20;5.70;;;25.30;92.80;;;;;;5044644;28;20459;-71
2021/07/03 09:51:54;;;;;;;7.00;6.33;;;25.40;94.40;;;;;;5044276;28;20478;-72
2021/07/03 09:54:23;;;;;;;5.80;5.30;;;25.50;94.80;;;;;;5024178;28;20535;-71
2021/07/03 09:57:00;;;;;;;7.10;6.17;;;25.70;93.30;;;;;;5046733;28;20467;-71
2021/07/03 09:59:29;;;;;;;5.80;5.13;;;25.80;93.30;;;;;;5045999;28;20440;-71
2021/07/03 10:01:56;;;;;;;5.53;5.03;;;25.80;92.70;;;;;;5024554;28;20511;-71
2021/07/03 10:04:24;;;;;;;7.43;6.77;;;25.80;91.60;;;;;;5013516;28;20436;-71
2021/07/03 10:07:09;;;;;;;8.57;7.07;;;25.90;90.20;;;;;;5011672;28;20469;-71
2021/07/03 10:09:52;;;;;;;8.47;6.23;;;26.00;88.30;;;;;;5025323;28;20991;-71
2021/07/03 10:12:26;;;;;;;7.70;5.50;;;26.00;83.60;;;;;;5021266;28;20507;-70
2021/07/03 10:14:54;;;;;;;5.93;5.43;;;25.90;84.60;;;;;;5031553;28;20458;-71
2021/07/03 10:17:32;;;;;;;5.90;5.50;;;26.10;80.10;;;;;;5016157;28;20467;-70
2021/07/03 10:20:07;;;;;;;6.83;6.20;;;26.10;78.10;;;;;;5031791;28;20428;-76
2021/07/03 10:22:35;;;;;;;6.13;5.50;;;26.20;79.30;;;;;;5029278;28;21028;-76
2021/07/03 10:25:36;;;;;;;6.20;5.70;;;26.30;80.00;;;;;;5012040;28;20428;-77
2021/07/03 10:28:07;;;;;;;7.50;6.60;;;26.40;80.50;;;;;;5016588;28;20475;-76
2021/07/03 10:30:35;;;;;;;6.87;6.17;;;26.30;81.30;;;;;;5029534;28;20431;-76
2021/07/03 10:33:17;;;;;;;6.70;6.20;;;26.10;81.40;;;;;;5015662;28;20476;-76
2021/07/03 10:35:51;;;;;;;8.10;7.37;;;26.00;79.60;;;;;;5032301;28;20462;-77
2021/07/03 10:38:20;;;;;;;7.90;6.80;;;25.80;82.70;;;;;;5023108;28;21010;-76
2021/07/03 10:40:49;;;;;;;6.80;6.20;;;25.80;84.10;;;;;;5014541;28;20428;-76
2021/07/03 10:43:16;;;;;;;6.07;5.57;;;26.00;85.10;;;;;;5016415;28;20469;-76
2021/07/03 10:45:48;;;;;;;6.93;6.23;;;26.00;80.90;;;;;;5015632;28;20432;-77
2021/07/03 10:48:22;;;;;;;5.80;5.30;;;26.00;80.70;;;;;;5026495;28;20465;-76
2021/07/03 10:50:51;;;;;;;6.63;5.77;;;25.90;84.70;;;;;;5017603;28;20894;-78
2021/07/03 10:53:30;;;;;;;6.47;5.67;;;25.90;83.70;;;;;;5021345;28;20486;-77
2021/07/03 10:56:11;;;;;;;6.30;5.63;;;26.00;81.50;;;;;;5004818;28;20464;-76
2021/07/03 10:58:39;;;;;;;6.40;5.80;;;26.10;81.90;;;;;;5014452;28;20452;-75
2021/07/03 11:01:14;;;;;;;26.07;16.23;;;26.20;80.30;;;;;;5034221;28;20513;-77
2021/07/03 11:03:49;;;;;;;7.93;7.20;;;26.50;84.10;;;;;;5029987;28;20575;-75
2021/07/03 11:06:21;;;;;;;7.83;6.30;;;26.50;81.00;;;;;;5018117;28;20439;-75
2021/07/03 11:08:53;;;;;;;7.00;6.30;;;26.60;80.70;;;;;;5024611;28;20440;-74
2021/07/03 11:11:20;;;;;;;7.57;6.87;;;26.60;80.50;;;;;;5030644;28;20452;-74
2021/07/03 11:13:54;;;;;;;7.53;6.10;;;26.60;82.40;;;;;;5033094;28;20455;-74
2021/07/03 11:16:20;;;;;;;6.70;5.77;;;26.70;80.00;;;;;;5030017;28;20460;-76
2021/07/03 11:18:48;;;;;;;6.40;5.90;;;26.70;76.20;;;;;;5021209;28;20987;-75
2021/07/03 11:21:16;;;;;;;7.03;6.43;;;26.50;77.50;;;;;;5021773;28;20439;-75
2021/07/03 11:23:43;;;;;;;5.37;4.87;;;26.60;76.80;;;;;;5025556;28;20471;-76
2021/07/03 11:26:15;;;;;;;6.63;6.03;;;26.90;72.50;;;;;;5049019;28;20435;-77
2021/07/03 11:28:51;;;;;;;6.40;5.90;;;27.00;71.70;;;;;;5033116;28;20437;-77
2021/07/03 11:31:22;;;;;;;6.80;6.30;;;26.90;73.10;;;;;;5021825;28;20548;-77
2021/07/03 11:33:54;;;;;;;6.30;5.80;;;26.70;75.00;;;;;;5033872;28;20460;-77
2021/07/03 11:36:24;;;;;;;7.30;6.60;;;26.50;72.80;;;;;;5033289;28;20826;-77
2021/07/03 11:38:59;;;;;;;7.03;6.33;;;26.30;74.50;;;;;;5031540;28;20518;-77
2021/07/03 11:41:27;;;;;;;7.87;7.17;;;26.30;78.50;;;;;;5023629;28;20477;-74
2021/07/03 11:44:02;;;;;;;6.37;5.87;;;26.10;84.80;;;;;;5039480;28;20434;-76
2021/07/03 11:46:29;;;;;;;8.57;6.70;;;26.10;87.40;;;;;;5032902;28;20459;-77
2021/07/03 11:49:03;;;;;;;9.00;6.80;;;26.00;87.30;;;;;;5016394;28;20554;-76
2021/07/03 11:51:30;;;;;;;6.80;5.80;;;25.80;83.20;;;;;;5032362;28;20456;-75
2021/07/03 11:53:57;;;;;;;7.23;6.53;;;25.60;80.60;;;;;;5021630;28;20441;-76
2021/07/03 11:56:23;;;;;;;7.47;6.80;;;25.60;76.80;;;;;;5030968;28;20471;-76
2021/07/03 11:58:51;;;;;;;8.17;7.33;;;25.60;83.00;;;;;;5033049;28;20432;-76
2021/07/03 12:01:20;;;;;;;7.90;7.20;;;25.50;83.30;;;;;;5033600;28;20509;-77
2021/07/03 12:03:48;;;;;;;8.43;7.73;;;25.40;81.60;;;;;;5025307;28;20829;-75
2021/07/03 12:06:23;;;;;;;8.17;7.13;;;25.40;86.70;;;;;;5033438;28;20428;-75
2021/07/03 12:08:51;;;;;;;7.60;6.90;;;25.20;88.20;;;;;;5029314;28;20439;-75
2021/07/03 12:11:23;;;;;;;7.77;7.10;;;25.20;84.30;;;;;;5025095;28;20457;-75
2021/07/03 12:13:54;;;;;;;6.63;6.00;;;25.10;85.60;;;;;;5013966;28;20437;-77
2021/07/03 12:16:29;;;;;;;8.57;5.40;;;25.10;84.00;;;;;;5020266;28;20452;-77
2021/07/03 12:18:57;;;;;;;9.03;6.30;;;25.20;80.60;;;;;;5028374;28;20436;-77
2021/07/03 12:21:24;;;;;;;8.17;6.10;;;25.20;80.50;;;;;;5032824;28;20475;-76
2021/07/03 12:23:55;;;;;;;6.97;6.30;;;25.20;79.70;;;;;;5021606;28;20445;-75
2021/07/03 12:26:37;;;;;;;9.60;6.87;;;25.10;79.20;;;;;;5019636;28;20478;-76
2021/07/03 12:29:09;;;;;;;6.70;6.10;;;25.10;85.70;;;;;;5031061;28;20805;-78
2021/07/03 12:31:40;;;;;;;8.43;5.70;;;25.20;77.30;;;;;;5032943;28;20495;-75
2021/07/03 12:34:11;;;;;;;7.10;6.50;;;25.20;77.30;;;;;;5033127;28;20449;-74
2021/07/03 12:36:47;;;;;;;6.90;6.17;;;25.20;77.30;;;;;;5031623;28;20547;-77
2021/07/03 12:39:24;;;;;;;6.80;6.10;;;25.40;73.70;;;;;;5022587;28;20436;-75
2021/07/03 12:42:03;;;;;;;11.63;7.67;;;25.30;75.40;;;;;;5032885;28;21116;-75
2021/07/03 12:44:48;;;;;;;6.60;6.00;;;25.30;77.30;;;;;;5027368;28;20440;-75
2021/07/03 12:47:20;;;;;;;8.90;6.30;;;25.30;79.10;;;;;;5020903;28;20893;-75
2021/07/03 12:50:00;;;;;;;7.73;6.23;;;25.40;76.80;;;;;;5014590;28;20441;-75